EKAH/AAR METAR and TAF weather

Enter ICAO airport designator
Station Type Date Time Source
EKAH METAR 2018/12/10 17:20 UTC NOAA

EKAH 101720Z AUTO 30011KT 9999NDV SCT060/// 04/01 Q1006


Station Type Date Time Source
EKAH Decoded METAR 2018/12/10 17:20 UTC NOAA

Tirstrup, Denmark (EKAH) 56-18N 010-37E 25M
Dec 10, 2018 - 12:20 PM EST / 2018.12.10 1720 UTC
Wind: from the WNW (300 degrees) at 13 MPH (11 KT):0
Sky conditions: partly cloudy
Temperature: 39 F (4 C)
Dew Point: 33 F (1 C)
Relative Humidity: 80%
Pressure (altimeter): 29.71 in. Hg (1006 hPa)
ob: EKAH 101720Z AUTO 30011KT 9999NDV SCT060/// 04/01 Q1006
cycle: 17

Station Type Date Time Source
EKAH TAF 2018/12/10 18:18 UTC NOAA

TAF TAF EKAH 101713Z 1018/1118 29012KT 9999 SCT020
BECMG 1102/1105 36010KT


Example: see airport list